createdAt,value
2022-11-12T00:01:35.840Z,5.00
2022-11-12T00:03:37.444Z,4.90
2022-11-12T00:05:39.112Z,4.80
2022-11-12T00:07:40.695Z,4.90
2022-11-12T00:09:42.247Z,4.80
2022-11-12T00:11:43.811Z,4.70
2022-11-12T00:13:45.363Z,4.70
2022-11-12T00:15:47.415Z,4.70
2022-11-12T00:17:48.959Z,4.60
2022-11-12T00:19:51.640Z,4.80
2022-11-12T00:21:53.243Z,4.80
2022-11-12T00:23:54.906Z,4.80
2022-11-12T00:26:00.169Z,4.70
2022-11-12T00:28:02.638Z,4.80
2022-11-12T00:30:04.614Z,4.80
2022-11-12T00:32:06.578Z,4.80
2022-11-12T00:34:08.147Z,4.80
2022-11-12T00:36:10.649Z,4.70
2022-11-12T00:38:12.376Z,4.60
2022-11-12T00:40:14.572Z,4.60
2022-11-12T00:42:16.156Z,4.60
2022-11-12T00:44:18.847Z,4.50
2022-11-12T00:46:20.407Z,4.40
2022-11-12T00:48:22.006Z,4.40
2022-11-12T00:50:23.620Z,4.40
2022-11-12T00:52:25.208Z,4.50
2022-11-12T00:54:26.886Z,4.50
2022-11-12T00:56:32.985Z,4.50
2022-11-12T00:58:37.025Z,4.40
2022-11-12T01:00:38.673Z,4.50
2022-11-12T01:02:43.408Z,4.50
2022-11-12T01:04:46.922Z,4.40
2022-11-12T01:06:48.642Z,4.40
2022-11-12T01:08:50.908Z,4.40
2022-11-12T01:10:52.469Z,4.40
2022-11-12T01:12:54.513Z,4.40
2022-11-12T01:14:56.905Z,4.50
2022-11-12T01:16:58.468Z,4.60
2022-11-12T01:19:06.931Z,4.50
2022-11-12T01:21:08.810Z,4.50
2022-11-12T01:23:10.356Z,4.60
2022-11-12T01:25:11.927Z,4.50
2022-11-12T01:27:13.553Z,4.50
2022-11-12T01:29:15.176Z,4.70
2022-11-12T01:31:18.506Z,4.80
2022-11-12T01:33:20.067Z,4.90
2022-11-12T01:35:21.639Z,5.00
2022-11-12T01:37:23.174Z,5.10
2022-11-12T01:39:24.811Z,5.30
2022-11-12T01:41:33.823Z,5.30
2022-11-12T01:43:35.421Z,5.30
2022-11-12T01:45:38.432Z,5.30
2022-11-12T01:47:40.009Z,5.40
2022-11-12T01:49:56.955Z,5.30
2022-11-12T01:52:10.521Z,5.30
2022-11-12T01:54:14.162Z,5.20
2022-11-12T01:56:16.470Z,5.20
2022-11-12T01:58:19.800Z,5.20
2022-11-12T02:00:21.415Z,5.20
2022-11-12T02:02:23.047Z,5.10
2022-11-12T02:04:25.470Z,5.10
2022-11-12T02:06:27.032Z,5.30
2022-11-12T02:08:29.239Z,5.40
2022-11-12T02:10:30.818Z,5.30
2022-11-12T02:12:50.817Z,5.20
2022-11-12T02:14:52.392Z,5.20
2022-11-12T02:16:53.966Z,5.30
2022-11-12T02:18:55.556Z,5.20
2022-11-12T02:20:57.951Z,5.30
2022-11-12T02:22:59.482Z,5.40
2022-11-12T02:25:01.037Z,5.30
2022-11-12T02:27:03.383Z,5.30
2022-11-12T02:29:07.321Z,5.20
2022-11-12T02:31:09.969Z,5.10
2022-11-12T02:33:11.569Z,5.20
2022-11-12T02:35:13.088Z,5.20
2022-11-12T02:37:14.655Z,5.30
2022-11-12T02:39:17.562Z,5.30
2022-11-12T02:41:20.372Z,5.20
2022-11-12T02:43:22.006Z,5.30
2022-11-12T02:45:23.683Z,5.30
2022-11-12T02:47:25.278Z,5.40
2022-11-12T02:49:26.898Z,5.40
2022-11-12T02:51:28.451Z,5.40
2022-11-12T02:53:32.367Z,5.30
2022-11-12T02:55:33.926Z,5.30
2022-11-12T02:57:36.107Z,5.30
2022-11-12T02:59:37.649Z,5.30
2022-11-12T03:01:39.286Z,5.40
2022-11-12T03:03:40.825Z,5.30
2022-11-12T03:05:42.728Z,5.40
2022-11-12T03:07:44.285Z,5.50
2022-11-12T03:09:45.813Z,5.50
2022-11-12T03:11:49.367Z,5.40
2022-11-12T03:13:50.927Z,5.30
2022-11-12T03:15:58.369Z,5.30
2022-11-12T03:18:00.195Z,5.50
2022-11-12T03:20:01.915Z,5.50
2022-11-12T03:22:03.474Z,5.50
2022-11-12T03:24:06.152Z,5.60
2022-11-12T03:26:07.733Z,5.50
2022-11-12T03:28:10.361Z,5.50
2022-11-12T03:30:12.035Z,5.40
2022-11-12T03:32:13.571Z,5.40
2022-11-12T03:34:17.319Z,5.40
2022-11-12T03:36:18.870Z,5.40
2022-11-12T03:38:20.509Z,5.50
2022-11-12T03:40:23.171Z,5.50
2022-11-12T03:42:24.750Z,5.50
2022-11-12T03:44:27.366Z,5.40
2022-11-12T03:46:28.991Z,5.30
2022-11-12T03:48:30.614Z,5.40
2022-11-12T03:50:32.189Z,5.30
2022-11-12T03:52:33.707Z,5.30
2022-11-12T03:54:35.294Z,5.20
2022-11-12T03:56:36.903Z,5.20
2022-11-12T03:58:38.464Z,5.20
2022-11-12T04:00:40.084Z,5.30
2022-11-12T04:02:41.630Z,5.40
2022-11-12T04:05:01.608Z,5.10
2022-11-12T04:07:23.747Z,5.30
2022-11-12T04:09:25.376Z,5.30
2022-11-12T04:11:27.039Z,5.40
2022-11-12T04:13:28.789Z,5.30
2022-11-12T04:15:30.338Z,5.40
2022-11-12T04:17:50.625Z,5.30
2022-11-12T04:20:10.852Z,5.20
2022-11-12T04:22:12.671Z,5.20
2022-11-12T04:24:34.225Z,5.30
2022-11-12T04:26:35.789Z,5.30
2022-11-12T04:28:37.340Z,5.30
2022-11-12T04:30:38.862Z,5.40
2022-11-12T04:32:45.279Z,5.30
2022-11-12T04:34:46.955Z,5.30
2022-11-12T04:36:48.593Z,5.20
2022-11-12T04:38:50.129Z,5.20
2022-11-12T04:41:10.590Z,5.00
2022-11-12T04:43:31.782Z,4.90
2022-11-12T04:45:33.674Z,4.90
2022-11-12T04:47:35.203Z,4.90
2022-11-12T04:49:36.777Z,5.00
2022-11-12T04:51:57.275Z,5.40
2022-11-12T04:53:59.867Z,5.50
2022-11-12T04:56:01.435Z,5.50
2022-11-12T04:58:03.098Z,5.60
2022-11-12T05:00:05.802Z,5.50
2022-11-12T05:02:07.352Z,5.60
2022-11-12T05:04:09.991Z,5.60
2022-11-12T05:06:30.366Z,5.60
2022-11-12T05:08:31.933Z,5.60
2022-11-12T05:10:33.475Z,5.60
2022-11-12T05:12:35.184Z,5.60
2022-11-12T05:14:36.951Z,5.40
2022-11-12T05:16:39.120Z,5.40
2022-11-12T05:18:40.758Z,5.50
2022-11-12T05:20:42.365Z,5.40
2022-11-12T05:22:54.263Z,5.50
2022-11-12T05:25:06.517Z,5.50
2022-11-12T05:27:10.360Z,5.50
2022-11-12T05:29:11.996Z,5.40
2022-11-12T05:31:13.533Z,5.30
2022-11-12T05:33:15.148Z,5.20
2022-11-12T05:35:16.707Z,5.40
2022-11-12T05:37:18.382Z,5.40
2022-11-12T05:39:22.036Z,5.40
2022-11-12T05:41:24.690Z,5.40
2022-11-12T05:43:26.226Z,5.40
2022-11-12T05:45:27.771Z,5.20
2022-11-12T05:47:29.349Z,5.30
2022-11-12T05:49:31.989Z,5.40
2022-11-12T05:51:33.573Z,5.30
2022-11-12T05:53:35.168Z,5.20
2022-11-12T05:55:37.236Z,5.20
2022-11-12T05:57:38.943Z,5.00
2022-11-12T05:59:40.527Z,5.00
2022-11-12T06:01:43.905Z,5.10
2022-11-12T06:03:45.535Z,5.20
2022-11-12T06:05:47.135Z,5.20
2022-11-12T06:07:48.880Z,5.10
2022-11-12T06:09:51.484Z,5.30
2022-11-12T06:11:53.097Z,5.40
2022-11-12T06:13:54.766Z,5.40
2022-11-12T06:15:56.733Z,5.40
2022-11-12T06:18:00.682Z,5.30
2022-11-12T06:20:02.272Z,5.30
2022-11-12T06:22:03.872Z,5.50
2022-11-12T06:24:05.726Z,5.20
2022-11-12T06:26:07.283Z,5.20
2022-11-12T06:28:08.862Z,5.40
2022-11-12T06:30:10.782Z,5.30
2022-11-12T06:32:12.353Z,5.10
2022-11-12T06:34:13.882Z,5.20
2022-11-12T06:36:16.843Z,5.20
2022-11-12T06:38:18.514Z,5.30
2022-11-12T06:40:38.667Z,5.20
2022-11-12T06:42:40.269Z,5.50
2022-11-12T06:44:47.790Z,5.40
2022-11-12T06:46:49.447Z,5.30
2022-11-12T06:48:51.025Z,5.20
2022-11-12T06:50:52.635Z,5.30
2022-11-12T06:52:57.899Z,5.40
2022-11-12T06:55:04.671Z,5.40
2022-11-12T06:57:07.205Z,5.40
2022-11-12T06:59:09.011Z,5.40
2022-11-12T07:01:14.396Z,5.60
2022-11-12T07:03:16.137Z,5.50
2022-11-12T07:05:17.747Z,5.50
2022-11-12T07:07:20.940Z,5.60
2022-11-12T07:09:22.618Z,5.60
2022-11-12T07:11:24.283Z,5.50
2022-11-12T07:13:25.933Z,5.20
2022-11-12T07:15:27.533Z,5.30
2022-11-12T07:17:29.108Z,5.40
2022-11-12T07:19:30.830Z,5.30
2022-11-12T07:21:33.417Z,5.40
2022-11-12T07:23:35.862Z,5.40
2022-11-12T07:25:37.411Z,5.40
2022-11-12T07:27:39.045Z,5.20
2022-11-12T07:29:48.952Z,5.20
2022-11-12T07:31:50.712Z,5.50
2022-11-12T07:33:52.453Z,5.60
2022-11-12T07:36:00.046Z,5.60
2022-11-12T07:38:01.581Z,5.60
2022-11-12T07:40:03.919Z,5.50
2022-11-12T07:42:05.456Z,5.60
2022-11-12T07:44:07.047Z,5.70
2022-11-12T07:46:11.154Z,5.70
2022-11-12T07:48:12.796Z,5.70
2022-11-12T07:50:14.509Z,5.60
2022-11-12T07:52:16.069Z,5.70
2022-11-12T07:54:17.680Z,5.70
2022-11-12T07:56:20.274Z,5.50
2022-11-12T07:58:22.006Z,5.70
2022-11-12T08:00:23.763Z,5.60
2022-11-12T08:02:25.416Z,5.80
2022-11-12T08:04:27.299Z,5.80
2022-11-12T08:06:29.966Z,5.80
2022-11-12T08:08:32.677Z,5.70
2022-11-12T08:10:34.261Z,5.70
2022-11-12T08:12:35.822Z,5.70
2022-11-12T08:14:44.750Z,5.80
2022-11-12T08:16:46.698Z,5.90
2022-11-12T08:18:48.262Z,5.90
2022-11-12T08:20:49.796Z,6.00
2022-11-12T08:22:53.914Z,5.80
2022-11-12T08:24:55.560Z,5.70
2022-11-12T08:26:57.181Z,5.70
2022-11-12T08:28:59.558Z,5.80
2022-11-12T08:31:10.752Z,6.00
2022-11-12T08:33:12.570Z,5.90
2022-11-12T08:35:14.327Z,6.10
2022-11-12T08:37:16.137Z,6.00
2022-11-12T08:39:17.732Z,6.00
2022-11-12T08:41:20.043Z,6.10
2022-11-12T08:43:21.698Z,6.20
2022-11-12T08:45:23.334Z,6.20
2022-11-12T08:47:24.926Z,6.20
2022-11-12T08:49:26.778Z,6.10
2022-11-12T08:51:28.402Z,6.00
2022-11-12T08:53:29.948Z,6.00
2022-11-12T08:55:33.206Z,6.10
2022-11-12T08:57:42.390Z,6.30
2022-11-12T08:59:43.966Z,6.40
2022-11-12T09:01:45.609Z,6.40
2022-11-12T09:03:48.964Z,6.50
2022-11-12T09:05:51.122Z,6.50
2022-11-12T09:07:59.788Z,6.40
2022-11-12T09:10:01.604Z,6.30
2022-11-12T09:12:10.465Z,6.50
2022-11-12T09:14:15.491Z,6.50
2022-11-12T09:16:18.056Z,6.50
2022-11-12T09:18:19.616Z,6.50
2022-11-12T09:20:21.207Z,6.60
2022-11-12T09:22:22.767Z,6.60
2022-11-12T09:24:24.417Z,6.70
2022-11-12T09:26:26.045Z,6.70
2022-11-12T09:28:28.331Z,6.60
2022-11-12T09:30:30.148Z,6.70
2022-11-12T09:32:31.898Z,6.60
2022-11-12T09:34:33.504Z,6.80
2022-11-12T09:36:39.686Z,6.90
2022-11-12T09:38:41.583Z,6.90
2022-11-12T09:40:52.462Z,6.90
2022-11-12T09:42:54.026Z,6.90
2022-11-12T09:45:13.011Z,7.00
2022-11-12T09:47:18.607Z,6.80
2022-11-12T09:49:20.143Z,6.90
2022-11-12T09:51:27.005Z,7.00
2022-11-12T09:53:33.027Z,7.00
2022-11-12T09:55:36.721Z,6.90
2022-11-12T09:57:38.768Z,6.80
2022-11-12T09:59:41.627Z,6.80
2022-11-12T10:02:06.304Z,6.90
2022-11-12T10:04:20.243Z,6.70
2022-11-12T10:06:23.858Z,6.80
2022-11-12T10:08:25.721Z,6.90
2022-11-12T10:10:57.398Z,6.90
2022-11-12T10:13:17.521Z,7.00
2022-11-12T10:15:50.002Z,7.10
2022-11-12T10:17:56.585Z,7.20
2022-11-12T10:20:01.182Z,7.30
2022-11-12T10:22:19.072Z,7.40
2022-11-12T10:24:21.443Z,7.30
2022-11-12T10:26:24.602Z,7.50
2022-11-12T10:28:35.672Z,7.60
2022-11-12T10:30:40.375Z,7.60
2022-11-12T10:32:45.920Z,7.60
2022-11-12T10:34:47.573Z,7.50
2022-11-12T10:36:52.983Z,7.40
2022-11-12T10:38:56.661Z,7.40
2022-11-12T10:40:58.341Z,7.80
2022-11-12T10:43:01.710Z,8.00
2022-11-12T10:45:32.596Z,8.20
2022-11-12T10:47:42.685Z,8.50
2022-11-12T10:49:44.342Z,8.60
2022-11-12T10:51:55.335Z,8.60
2022-11-12T10:53:57.089Z,8.90
2022-11-12T10:58:19.287Z,8.90
2022-11-12T11:00:21.214Z,9.20
2022-11-12T11:02:22.850Z,9.40
2022-11-12T11:04:37.145Z,9.40
2022-11-12T11:06:38.832Z,9.70
2022-11-12T11:08:47.088Z,9.80
2022-11-12T11:10:48.803Z,10.00
2022-11-12T11:12:51.760Z,9.70
2022-11-12T11:15:18.481Z,9.60
2022-11-12T11:17:20.078Z,9.80
2022-11-12T11:19:21.658Z,9.90
2022-11-12T11:21:29.758Z,10.20
2022-11-12T11:23:37.368Z,10.20
2022-11-12T11:25:39.523Z,10.20
2022-11-12T11:27:43.763Z,10.30
2022-11-12T11:30:08.602Z,10.40
2022-11-12T11:32:33.261Z,10.50
2022-11-12T11:34:48.073Z,10.50
2022-11-12T11:37:02.090Z,10.60
2022-11-12T11:39:09.871Z,10.70
2022-11-12T11:41:12.921Z,10.80
2022-11-12T11:43:53.250Z,11.00
2022-11-12T11:46:10.398Z,11.20
2022-11-12T11:48:35.863Z,11.40
2022-11-12T11:52:51.679Z,11.50
2022-11-12T11:54:53.252Z,11.40
2022-11-12T11:56:58.178Z,11.20
2022-11-12T11:58:59.714Z,11.00
2022-11-12T12:01:19.788Z,11.30
2022-11-12T12:03:31.775Z,11.50
2022-11-12T12:05:42.920Z,11.60
2022-11-12T12:07:51.403Z,11.60
2022-11-12T12:09:57.517Z,11.50
2022-11-12T12:12:17.839Z,11.60
2022-11-12T12:14:19.522Z,11.50
2022-11-12T12:16:39.801Z,11.70
2022-11-12T12:18:41.369Z,11.80
2022-11-12T12:21:01.828Z,11.80
2022-11-12T12:23:06.044Z,11.70
2022-11-12T12:25:17.045Z,12.40
2022-11-12T12:27:21.245Z,12.60
2022-11-12T12:29:27.937Z,12.80
2022-11-12T12:31:31.629Z,12.90
2022-11-12T12:33:54.243Z,13.00
2022-11-12T12:35:55.816Z,13.00
2022-11-12T12:38:02.865Z,13.20
2022-11-12T12:40:13.655Z,13.30
2022-11-12T12:42:18.552Z,13.40
2022-11-12T12:44:20.251Z,12.80
2022-11-12T12:46:23.763Z,12.40
2022-11-12T12:48:34.232Z,12.90
2022-11-12T12:50:38.297Z,13.10
2022-11-12T12:52:59.191Z,13.10
2022-11-12T12:55:00.995Z,13.10
2022-11-12T12:57:25.540Z,13.00
2022-11-12T12:59:27.169Z,12.90
2022-11-12T13:01:31.369Z,13.00
2022-11-12T13:03:51.975Z,12.90
2022-11-12T13:06:05.896Z,13.00
2022-11-12T13:08:12.278Z,13.00
2022-11-12T13:10:32.427Z,12.80
2022-11-12T13:12:52.760Z,13.10
2022-11-12T13:15:08.526Z,13.30
2022-11-12T13:17:11.696Z,13.40
2022-11-12T13:19:26.466Z,13.20
2022-11-12T13:21:28.233Z,13.30
2022-11-12T13:24:07.408Z,13.40
2022-11-12T13:26:27.660Z,13.60
2022-11-12T13:28:29.755Z,13.50
2022-11-12T13:30:31.830Z,13.30
2022-11-12T13:32:34.053Z,13.10
2022-11-12T13:34:35.787Z,12.80
2022-11-12T13:36:37.415Z,12.80
2022-11-12T13:38:38.984Z,12.60
2022-11-12T13:40:49.586Z,12.60
2022-11-12T13:42:52.135Z,12.50
2022-11-12T13:44:56.268Z,12.60
2022-11-12T13:46:58.092Z,12.80
2022-11-12T13:49:09.536Z,12.90
2022-11-12T13:51:16.473Z,12.80
2022-11-12T13:53:20.129Z,12.80
2022-11-12T13:55:22.724Z,12.80
2022-11-12T13:57:24.293Z,12.80
2022-11-12T13:59:25.991Z,12.70
2022-11-12T14:01:33.285Z,12.60
2022-11-12T14:03:43.188Z,12.50
2022-11-12T14:05:46.853Z,12.60
2022-11-12T14:08:01.430Z,12.50
2022-11-12T14:10:23.407Z,12.60
2022-11-12T14:12:50.865Z,12.50
2022-11-12T14:15:16.306Z,12.50
2022-11-12T14:17:24.102Z,12.50
2022-11-12T14:19:47.609Z,12.40
2022-11-12T14:22:18.453Z,12.20
2022-11-12T14:24:20.493Z,12.20
2022-11-12T14:26:34.321Z,12.20
2022-11-12T14:28:36.533Z,12.20
2022-11-12T14:30:43.417Z,12.20
2022-11-12T14:32:46.655Z,12.10
2022-11-12T14:34:48.419Z,12.10
2022-11-12T14:36:50.561Z,12.00
2022-11-12T14:38:54.987Z,11.80
2022-11-12T14:41:03.190Z,11.60
2022-11-12T14:43:05.195Z,11.50
2022-11-12T14:45:14.080Z,11.40
2022-11-12T14:47:17.483Z,11.40
2022-11-12T14:49:28.159Z,11.30
2022-11-12T14:51:32.028Z,11.20
2022-11-12T14:53:38.593Z,11.10
2022-11-12T14:55:41.882Z,11.00
2022-11-12T14:57:43.748Z,11.00
2022-11-12T14:59:45.332Z,10.90
2022-11-12T15:04:34.762Z,10.70
2022-11-12T15:06:36.434Z,10.60
2022-11-12T15:08:39.810Z,10.60
2022-11-12T15:10:42.706Z,10.50
2022-11-12T15:12:44.309Z,10.40
2022-11-12T15:14:46.014Z,10.40
2022-11-12T15:16:47.918Z,10.30
2022-11-12T15:18:59.847Z,10.30
2022-11-12T15:21:09.571Z,10.20
2022-11-12T15:23:16.628Z,10.10
2022-11-12T15:25:25.622Z,10.00
2022-11-12T15:27:33.495Z,9.90
2022-11-12T15:29:35.979Z,9.90
2022-11-12T15:31:45.465Z,9.80
2022-11-12T15:33:47.116Z,9.80
2022-11-12T15:35:55.785Z,9.80
2022-11-12T15:38:00.489Z,9.70
2022-11-12T15:40:05.604Z,9.60
2022-11-12T15:42:17.669Z,9.60
2022-11-12T15:44:19.250Z,9.50
2022-11-12T15:46:20.911Z,9.40
2022-11-12T15:48:22.809Z,9.40
2022-11-12T15:50:24.791Z,9.30
2022-11-12T15:52:26.778Z,9.30
2022-11-12T15:54:28.666Z,9.20
2022-11-12T15:56:30.841Z,9.20
2022-11-12T15:58:33.937Z,9.10
2022-11-12T16:00:37.282Z,9.10
2022-11-12T16:02:38.978Z,9.10
2022-11-12T16:04:40.706Z,9.00
2022-11-12T16:06:42.428Z,9.00
2022-11-12T16:08:44.060Z,9.00
2022-11-12T16:10:46.227Z,8.90
2022-11-12T16:12:48.095Z,8.90
2022-11-12T16:14:49.759Z,8.80
2022-11-12T16:16:51.385Z,8.70
2022-11-12T16:18:52.987Z,8.70
2022-11-12T16:20:54.666Z,8.70
2022-11-12T16:22:56.268Z,8.60
2022-11-12T16:24:57.908Z,8.60
2022-11-12T16:27:01.260Z,8.60
2022-11-12T16:29:03.676Z,8.50
2022-11-12T16:31:06.607Z,8.50
2022-11-12T16:33:10.008Z,8.50
2022-11-12T16:35:11.653Z,8.40
2022-11-12T16:37:13.378Z,8.30
2022-11-12T16:39:15.155Z,8.30
2022-11-12T16:41:16.920Z,8.30
2022-11-12T16:43:18.547Z,8.30
2022-11-12T16:45:24.578Z,8.20
2022-11-12T16:47:26.140Z,8.20
2022-11-12T16:49:27.724Z,8.10
2022-11-12T16:51:29.332Z,8.10
2022-11-12T16:53:31.164Z,8.10
2022-11-12T16:55:32.849Z,8.00
2022-11-12T16:57:34.813Z,8.00
2022-11-12T16:59:36.638Z,7.90
2022-11-12T17:01:38.301Z,7.90
2022-11-12T17:03:39.968Z,7.90
2022-11-12T17:05:41.874Z,7.80
2022-11-12T17:07:43.493Z,7.90
2022-11-12T17:09:45.096Z,7.90
2022-11-12T17:11:46.803Z,7.70
2022-11-12T17:13:48.560Z,7.70
2022-11-12T17:15:55.879Z,7.60
2022-11-12T17:17:57.435Z,7.60
2022-11-12T17:19:59.141Z,7.60
2022-11-12T17:22:00.733Z,7.50
2022-11-12T17:24:02.504Z,7.50
2022-11-12T17:26:05.142Z,7.50
2022-11-12T17:28:06.744Z,7.50
2022-11-12T17:30:08.635Z,7.50
2022-11-12T17:32:10.337Z,7.40
2022-11-12T17:34:11.912Z,7.40
2022-11-12T17:36:15.102Z,7.30
2022-11-12T17:38:16.677Z,7.30
2022-11-12T17:40:18.258Z,7.30
2022-11-12T17:42:19.826Z,7.30
2022-11-12T17:44:21.502Z,7.30
2022-11-12T17:46:23.120Z,7.30
2022-11-12T17:48:25.256Z,7.20
2022-11-12T17:50:27.403Z,7.30
2022-11-12T17:52:28.991Z,7.20
2022-11-12T17:54:30.614Z,7.10
2022-11-12T17:56:36.966Z,7.00
2022-11-12T17:58:39.039Z,7.00
2022-11-12T18:00:40.639Z,7.00
2022-11-12T18:02:42.302Z,6.90
2022-11-12T18:04:43.920Z,6.90
2022-11-12T18:06:45.815Z,6.90
2022-11-12T18:08:48.117Z,7.00
2022-11-12T18:10:49.707Z,7.30
2022-11-12T18:12:51.576Z,7.30
2022-11-12T18:14:53.166Z,7.40
2022-11-12T18:16:55.560Z,7.30
2022-11-12T18:18:57.428Z,7.20
2022-11-12T18:20:59.088Z,7.00
2022-11-12T18:23:00.702Z,6.90
2022-11-12T18:25:02.275Z,6.80
2022-11-12T18:27:03.999Z,6.70
2022-11-12T18:29:05.704Z,6.70
2022-11-12T18:31:07.653Z,6.60
2022-11-12T18:33:09.307Z,6.50
2022-11-12T18:35:10.950Z,6.50
2022-11-12T18:37:12.512Z,6.40
2022-11-12T18:39:14.822Z,6.50
2022-11-12T18:41:17.177Z,6.50
2022-11-12T18:43:18.734Z,6.50
2022-11-12T18:45:20.367Z,6.60
2022-11-12T18:47:21.955Z,6.50
2022-11-12T18:49:23.544Z,6.50
2022-11-12T18:51:25.111Z,6.50
2022-11-12T18:53:27.263Z,6.50
2022-11-12T18:55:29.030Z,6.50
2022-11-12T18:57:30.651Z,6.50
2022-11-12T18:59:32.566Z,6.40
2022-11-12T19:01:34.219Z,6.30
2022-11-12T19:03:36.840Z,6.20
2022-11-12T19:05:38.440Z,6.20
2022-11-12T19:07:40.047Z,6.20
2022-11-12T19:09:41.815Z,6.30
2022-11-12T19:11:43.660Z,6.20
2022-11-12T19:13:45.544Z,6.30
2022-11-12T19:15:47.130Z,6.30
2022-11-12T19:17:48.695Z,6.30
2022-11-12T19:19:50.413Z,6.30
2022-11-12T19:21:52.153Z,6.20
2022-11-12T19:23:54.931Z,6.20
2022-11-12T19:25:56.749Z,6.10
2022-11-12T19:27:58.327Z,6.10
2022-11-12T19:30:03.244Z,6.00
2022-11-12T19:32:05.361Z,5.90
2022-11-12T19:34:07.055Z,5.90
2022-11-12T19:36:10.033Z,6.00
2022-11-12T19:38:11.675Z,6.00
2022-11-12T19:40:13.837Z,5.90
2022-11-12T19:42:15.477Z,6.00
2022-11-12T19:44:17.088Z,6.00
2022-11-12T19:46:19.012Z,6.00
2022-11-12T19:48:20.659Z,6.00
2022-11-12T19:50:24.720Z,6.00
2022-11-12T19:52:26.577Z,5.90
2022-11-12T19:54:28.185Z,5.80
2022-11-12T19:56:32.260Z,5.90
2022-11-12T19:58:34.208Z,5.90
2022-11-12T20:00:35.970Z,5.90
2022-11-12T20:02:37.606Z,5.90
2022-11-12T20:04:39.219Z,5.80
2022-11-12T20:06:40.987Z,5.90
2022-11-12T20:08:42.708Z,6.00
2022-11-12T20:10:44.480Z,5.90
2022-11-12T20:12:46.486Z,5.90
2022-11-12T20:14:48.096Z,5.90
2022-11-12T20:16:50.512Z,5.80
2022-11-12T20:18:53.203Z,5.80
2022-11-12T20:20:55.768Z,5.70
2022-11-12T20:22:57.362Z,5.70
2022-11-12T20:24:59.233Z,5.80
2022-11-12T20:27:00.909Z,5.90
2022-11-12T20:29:02.488Z,5.90
2022-11-12T20:31:05.959Z,5.80
2022-11-12T20:33:07.633Z,5.70
2022-11-12T20:35:16.537Z,5.70
2022-11-12T20:37:22.590Z,5.70
2022-11-12T20:39:24.200Z,5.60
2022-11-12T20:41:26.374Z,5.70
2022-11-12T20:43:29.372Z,5.80
2022-11-12T20:45:31.125Z,5.60
2022-11-12T20:47:33.123Z,5.70
2022-11-12T20:49:34.857Z,5.60
2022-11-12T20:51:36.726Z,5.70
2022-11-12T20:53:38.483Z,5.50
2022-11-12T20:55:40.296Z,5.40
2022-11-12T20:57:41.989Z,5.40
2022-11-12T20:59:44.094Z,5.40
2022-11-12T21:01:45.820Z,5.40
2022-11-12T21:03:47.691Z,5.40
2022-11-12T21:05:49.477Z,5.40
2022-11-12T21:07:51.214Z,5.50
2022-11-12T21:09:52.841Z,5.40
2022-11-12T21:11:54.585Z,5.40
2022-11-12T21:13:56.467Z,5.40
2022-11-12T21:15:58.043Z,5.30
2022-11-12T21:17:59.609Z,5.40
2022-11-12T21:20:01.375Z,5.30
2022-11-12T21:22:03.112Z,5.30
2022-11-12T21:24:05.422Z,5.10
2022-11-12T21:26:12.826Z,5.10
2022-11-12T21:28:14.519Z,5.10
2022-11-12T21:30:16.281Z,5.10
2022-11-12T21:32:17.929Z,5.20
2022-11-12T21:34:19.641Z,5.00
2022-11-12T21:36:22.301Z,5.00
2022-11-12T21:38:23.980Z,5.00
2022-11-12T21:40:26.083Z,5.00
2022-11-12T21:42:28.083Z,5.00
2022-11-12T21:44:29.690Z,5.00
2022-11-12T21:46:31.742Z,4.90
2022-11-12T21:48:33.308Z,4.90
2022-11-12T21:50:34.914Z,4.80
2022-11-12T21:52:36.538Z,4.80
2022-11-12T21:54:38.920Z,5.00
2022-11-12T21:56:40.598Z,4.90
2022-11-12T21:58:42.682Z,4.90
2022-11-12T22:00:44.399Z,4.90
2022-11-12T22:02:46.042Z,4.90
2022-11-12T22:04:47.669Z,4.80
2022-11-12T22:06:49.475Z,4.80
2022-11-12T22:08:52.277Z,4.90
2022-11-12T22:10:59.616Z,4.80
2022-11-12T22:15:24.468Z,4.70
2022-11-12T22:17:26.263Z,4.80
2022-11-12T22:19:27.855Z,4.80
2022-11-12T22:21:35.429Z,4.70
2022-11-12T22:23:40.432Z,4.80
2022-11-12T22:25:42.123Z,4.80
2022-11-12T22:27:43.745Z,4.70
2022-11-12T22:29:47.267Z,4.60
2022-11-12T22:31:48.944Z,4.50
2022-11-12T22:33:50.786Z,4.60
2022-11-12T22:35:52.385Z,4.50
2022-11-12T22:37:54.427Z,4.40
2022-11-12T22:39:56.063Z,4.40
2022-11-12T22:41:57.759Z,4.20
2022-11-12T22:44:00.463Z,4.20
2022-11-12T22:46:08.157Z,4.20
2022-11-12T22:48:09.737Z,4.20
2022-11-12T22:50:11.356Z,4.20
2022-11-12T22:52:12.952Z,4.30
2022-11-12T22:54:17.901Z,4.30
2022-11-12T22:56:19.662Z,4.40
2022-11-12T22:58:21.787Z,4.30
2022-11-12T23:00:28.918Z,4.40
2022-11-12T23:02:30.635Z,4.60
2022-11-12T23:04:32.197Z,4.90
2022-11-12T23:06:34.178Z,4.60
2022-11-12T23:08:36.073Z,4.40
2022-11-12T23:10:41.637Z,4.40
2022-11-12T23:12:47.358Z,4.50
2022-11-12T23:14:48.956Z,4.40
2022-11-12T23:16:50.620Z,4.60
2022-11-12T23:18:52.909Z,4.80
2022-11-12T23:20:54.559Z,4.50
2022-11-12T23:22:56.125Z,4.50
2022-11-12T23:24:57.745Z,4.50
2022-11-12T23:27:01.104Z,4.50
2022-11-12T23:29:02.938Z,4.70
2022-11-12T23:31:05.620Z,5.00
2022-11-12T23:33:07.231Z,4.90
2022-11-12T23:35:09.280Z,5.00
2022-11-12T23:37:10.898Z,5.10
2022-11-12T23:39:12.566Z,4.90
2022-11-12T23:41:16.064Z,5.00
2022-11-12T23:43:17.890Z,5.00
2022-11-12T23:45:19.480Z,4.90
2022-11-12T23:47:21.113Z,4.90
2022-11-12T23:49:22.745Z,4.70
2022-11-12T23:51:24.650Z,4.60
2022-11-12T23:53:26.266Z,4.80
2022-11-12T23:55:29.448Z,4.60
2022-11-12T23:57:32.864Z,4.70
2022-11-12T23:59:34.448Z,4.60
